Kentville, Canada
Current Conditions -  °F | °C
As of 7:00 PM on Thursday 23 Oct 2014 (Local Time) from CYZX Reporting Station
Light Rain Light Rain  
Wind Chill: 52°   Ceiling: 1200
Heat Index: 52°   Visibility: 12mi
Dew Point: 50°   Wind: 24mph
Humidity: 94%   Direction: 70°ENE
Pressure: 29.85"   Gusts: 31mph
Location:  45.08°N, 64.49°W
Report Text: CYZX 232200Z 07021G27KT 12SM -RA FEW009 BKN012 OVC020 11/10 A2985 RMK SF1SC6SC2 WNDY HILL 09024G34KT SLP108
Loading
Personal Weather Stations






























Interactive Weather Map
Tropical Storm Tracking
New forecast layout! Learn more

10-Day Weather Forecast

Advertisements
Track Severe Weather on mobile